Garrison, North Dakota
Current Conditions -  °F | °C
As of 8:35 AM on Saturday 25 Oct 2014 (Local Time) from KHZE Reporting Station
Broken Clouds Broken Clouds  
Wind Chill: 34°   Ceiling: 12000
Heat Index: 34°   Visibility: 10mi
Dew Point: 30°   Wind: 0mph
Humidity: 87%   Direction: NA
Pressure: 30.15"   Gusts: NA
Location:  47.65°N, 101.42°W
Report Text: KHZE 251335Z AUTO 00000KT 10SM BKN120 01/M01 A3015 RMK AO2
Loading
Personal Weather Stations






























Interactive Weather Map
Tropical Storm Tracking
New forecast layout! Learn more

10-Day Weather Forecast

Advertisements
Track Severe Weather on mobile